createdAt,value
2019-05-05T00:01:18.218Z,100.00
2019-05-05T00:06:25.000Z,100.00
2019-05-05T00:11:35.145Z,100.00
2019-05-05T00:16:45.469Z,100.00
2019-05-05T00:21:51.534Z,100.00
2019-05-05T00:26:57.114Z,100.00
2019-05-05T00:32:04.803Z,100.00
2019-05-05T00:37:10.271Z,100.00
2019-05-05T00:42:16.065Z,100.00
2019-05-05T00:47:25.103Z,100.00
2019-05-05T00:52:30.811Z,100.00
2019-05-05T00:57:37.040Z,100.00
2019-05-05T01:02:44.905Z,100.00
2019-05-05T01:07:50.840Z,100.00
2019-05-05T01:12:56.613Z,100.00
2019-05-05T01:18:02.916Z,100.00
2019-05-05T01:23:09.629Z,100.00
2019-05-05T01:28:15.731Z,100.00
2019-05-05T01:33:27.705Z,100.00
2019-05-05T01:38:44.698Z,100.00
2019-05-05T01:43:50.474Z,100.00
2019-05-05T01:48:56.195Z,100.00
2019-05-05T01:54:02.043Z,100.00
2019-05-05T01:59:07.706Z,100.00
2019-05-05T02:04:14.470Z,100.00
2019-05-05T02:09:21.376Z,100.00
2019-05-05T02:14:27.344Z,100.00
2019-05-05T02:19:35.058Z,100.00
2019-05-05T02:24:40.623Z,100.00
2019-05-05T02:29:51.039Z,100.00
2019-05-05T02:34:58.445Z,100.00
2019-05-05T02:40:07.682Z,100.00
2019-05-05T02:45:16.188Z,100.00
2019-05-05T02:50:25.109Z,100.00
2019-05-05T02:55:32.769Z,100.00
2019-05-05T03:00:56.837Z,100.00
2019-05-05T03:06:04.463Z,100.00
2019-05-05T03:11:14.552Z,100.00
2019-05-05T03:16:23.807Z,100.00
2019-05-05T03:21:29.676Z,100.00
2019-05-05T03:26:35.733Z,100.00
2019-05-05T03:31:41.430Z,100.00
2019-05-05T03:36:47.377Z,100.00
2019-05-05T03:41:54.798Z,100.00
2019-05-05T03:47:00.807Z,100.00
2019-05-05T03:52:06.580Z,100.00
2019-05-05T03:57:14.122Z,100.00
2019-05-05T04:02:24.131Z,100.00
2019-05-05T04:07:30.267Z,100.00
2019-05-05T04:12:36.555Z,100.00
2019-05-05T04:17:44.407Z,100.00
2019-05-05T04:22:51.262Z,100.00
2019-05-05T04:27:57.010Z,100.00
2019-05-05T04:33:03.766Z,100.00
2019-05-05T04:38:09.639Z,100.00
2019-05-05T04:43:15.465Z,100.00
2019-05-05T04:48:24.184Z,100.00
2019-05-05T04:53:49.227Z,100.00
2019-05-05T04:58:55.300Z,100.00
2019-05-05T05:04:03.698Z,100.00
2019-05-05T05:09:09.496Z,100.00
2019-05-05T05:14:15.273Z,100.00
2019-05-05T05:19:21.143Z,100.00
2019-05-05T05:24:27.009Z,100.00
2019-05-05T05:29:34.529Z,100.00
2019-05-05T05:34:40.080Z,100.00
2019-05-05T05:39:47.589Z,100.00
2019-05-05T05:44:54.880Z,100.00
2019-05-05T05:50:05.077Z,100.00
2019-05-05T05:55:10.837Z,100.00
2019-05-05T06:00:16.969Z,100.00
2019-05-05T06:05:23.845Z,100.00
2019-05-05T06:10:29.806Z,100.00
2019-05-05T06:15:36.155Z,100.00
2019-05-05T06:20:41.935Z,100.00
2019-05-05T06:25:47.706Z,100.00
2019-05-05T06:30:54.639Z,100.00
2019-05-05T06:36:00.581Z,100.00
2019-05-05T06:41:10.621Z,100.00
2019-05-05T06:46:30.028Z,100.00
2019-05-05T06:51:35.836Z,100.00
2019-05-05T06:56:41.820Z,100.00
2019-05-05T07:01:47.877Z,100.00
2019-05-05T07:06:56.901Z,100.00
2019-05-05T07:12:01.255Z,100.00
2019-05-05T07:17:08.063Z,100.00
2019-05-05T07:22:17.296Z,100.00
2019-05-05T07:27:21.527Z,100.00
2019-05-05T07:32:27.384Z,95.39
2019-05-05T07:37:34.406Z,94.84
2019-05-05T07:42:40.356Z,89.83
2019-05-05T07:47:47.456Z,89.83
2019-05-05T07:52:54.660Z,88.43
2019-05-05T07:58:00.739Z,87.01
2019-05-05T08:03:06.564Z,84.24
2019-05-05T08:08:14.030Z,81.38
2019-05-05T08:13:19.766Z,77.72
2019-05-05T08:18:30.114Z,72.67
2019-05-05T08:23:37.769Z,70.83
2019-05-05T08:28:45.071Z,75.83
2019-05-05T08:33:50.828Z,77.19
2019-05-05T08:38:56.647Z,79.49
2019-05-05T08:44:04.286Z,78.98
2019-05-05T08:49:10.026Z,77.10
2019-05-05T08:54:15.959Z,71.23
2019-05-05T08:59:21.735Z,70.15
2019-05-05T09:04:27.599Z,71.27
2019-05-05T09:09:33.626Z,69.35
2019-05-05T09:14:39.442Z,69.76
2019-05-05T09:19:45.227Z,68.98
2019-05-05T09:24:58.767Z,73.23
2019-05-05T09:30:05.939Z,85.36
2019-05-05T09:35:13.883Z,89.24
2019-05-05T09:40:24.159Z,87.96
2019-05-05T09:45:30.032Z,82.94
2019-05-05T09:50:36.423Z,81.02
2019-05-05T09:55:44.322Z,75.78
2019-05-05T10:00:49.794Z,70.24
2019-05-05T10:05:55.699Z,67.82
2019-05-05T10:11:03.939Z,63.65
2019-05-05T10:16:09.157Z,66.45
2019-05-05T10:21:17.718Z,64.86
2019-05-05T10:26:23.857Z,62.79
2019-05-05T10:31:29.877Z,63.59
2019-05-05T10:36:35.702Z,66.50
2019-05-05T10:41:41.525Z,67.50
2019-05-05T10:46:47.466Z,66.12
2019-05-05T10:51:54.326Z,68.16
2019-05-05T10:57:00.247Z,66.90
2019-05-05T11:02:06.027Z,66.04
2019-05-05T11:07:11.862Z,68.00
2019-05-05T11:12:17.506Z,61.00
2019-05-05T11:17:24.816Z,57.30
2019-05-05T11:22:30.799Z,57.00
2019-05-05T11:27:36.684Z,57.65
2019-05-05T11:33:04.031Z,57.83
2019-05-05T11:38:10.033Z,55.12
2019-05-05T11:43:15.893Z,55.46
2019-05-05T11:48:23.863Z,53.44
2019-05-05T11:53:29.072Z,52.33
2019-05-05T11:58:34.710Z,47.91
2019-05-05T12:03:40.506Z,58.31
2019-05-05T12:08:46.375Z,60.68
2019-05-05T12:13:54.439Z,57.89
2019-05-05T12:19:01.082Z,53.72
2019-05-05T12:24:08.532Z,54.41
2019-05-05T12:29:14.491Z,53.60
2019-05-05T12:34:20.332Z,49.74
2019-05-05T12:39:26.209Z,49.47
2019-05-05T12:44:34.157Z,50.84
2019-05-05T12:49:41.067Z,50.58
2019-05-05T12:54:47.307Z,56.47
2019-05-05T12:59:53.699Z,53.91
2019-05-05T13:04:59.762Z,49.13
2019-05-05T13:10:07.585Z,46.52
2019-05-05T13:15:14.351Z,44.75
2019-05-05T13:20:38.677Z,42.39
2019-05-05T13:25:56.055Z,42.43
2019-05-05T13:30:56.308Z,43.85
2019-05-05T13:36:04.193Z,43.63
2019-05-05T13:41:09.739Z,45.33
2019-05-05T13:46:17.147Z,48.52
2019-05-05T13:51:24.007Z,49.94
2019-05-05T13:56:29.949Z,50.54
2019-05-05T14:01:35.941Z,49.15
2019-05-05T14:06:43.988Z,46.84
2019-05-05T14:11:49.241Z,43.12
2019-05-05T14:16:56.010Z,46.53
2019-05-05T14:22:01.693Z,51.25
2019-05-05T14:27:07.445Z,48.07
2019-05-05T14:32:14.885Z,44.56
2019-05-05T14:37:34.499Z,44.40
2019-05-05T14:42:40.321Z,45.54
2019-05-05T14:47:46.155Z,44.84
2019-05-05T14:52:53.511Z,45.08
2019-05-05T14:57:59.419Z,50.15
2019-05-05T15:03:05.616Z,53.37
2019-05-05T15:08:18.955Z,54.94
2019-05-05T15:13:25.226Z,54.27
2019-05-05T15:18:31.000Z,53.58
2019-05-05T15:23:37.274Z,53.26
2019-05-05T15:28:45.228Z,50.75
2019-05-05T15:33:53.441Z,47.12
2019-05-05T15:38:59.389Z,48.50
2019-05-05T15:44:06.879Z,52.05
2019-05-05T15:49:13.363Z,52.62
2019-05-05T15:54:20.184Z,52.86
2019-05-05T15:59:26.156Z,53.51
2019-05-05T16:04:34.048Z,54.91
2019-05-05T16:09:39.640Z,56.37
2019-05-05T16:14:47.145Z,56.98
2019-05-05T16:19:57.360Z,58.08
2019-05-05T16:25:17.013Z,55.89
2019-05-05T16:30:25.483Z,56.99
2019-05-05T16:35:31.355Z,56.65
2019-05-05T16:40:37.137Z,55.48
2019-05-05T16:45:44.471Z,50.39
2019-05-05T16:50:50.359Z,53.92
2019-05-05T16:55:57.490Z,54.88
2019-05-05T17:01:03.898Z,55.75
2019-05-05T17:06:09.744Z,55.46
2019-05-05T17:11:15.597Z,55.67
2019-05-05T17:16:25.871Z,63.48
2019-05-05T17:21:36.341Z,68.08
2019-05-05T17:26:43.876Z,66.39
2019-05-05T17:31:49.730Z,65.51
2019-05-05T17:36:55.886Z,67.18
2019-05-05T17:42:19.684Z,67.60
2019-05-05T17:47:36.940Z,67.41
2019-05-05T17:52:50.388Z,76.23
2019-05-05T17:58:01.509Z,75.76
2019-05-05T18:03:05.097Z,81.02
2019-05-05T18:08:13.844Z,76.39
2019-05-05T18:13:22.240Z,80.20
2019-05-05T18:18:28.029Z,84.97
2019-05-05T18:23:34.282Z,87.19
2019-05-05T18:28:40.121Z,91.35
2019-05-05T18:33:45.968Z,90.71
2019-05-05T18:38:53.676Z,88.89
2019-05-05T18:44:09.610Z,89.10
2019-05-05T18:49:15.543Z,88.78
2019-05-05T18:54:21.418Z,100.00
2019-05-05T18:59:27.385Z,100.00
2019-05-05T19:04:34.818Z,100.00
2019-05-05T19:09:51.078Z,100.00
2019-05-05T19:14:47.941Z,100.00
2019-05-05T19:19:55.315Z,100.00
2019-05-05T19:25:04.273Z,100.00
2019-05-05T19:30:10.345Z,100.00
2019-05-05T19:35:16.285Z,100.00
2019-05-05T19:40:24.224Z,100.00
2019-05-05T19:45:29.753Z,100.00
2019-05-05T19:50:40.013Z,100.00
2019-05-05T19:55:45.716Z,100.00
2019-05-05T20:00:51.879Z,100.00
2019-05-05T20:05:57.797Z,100.00
2019-05-05T20:11:08.244Z,100.00
2019-05-05T20:16:15.690Z,100.00
2019-05-05T20:21:23.571Z,100.00
2019-05-05T20:26:29.148Z,100.00
2019-05-05T20:31:35.020Z,100.00
2019-05-05T20:36:42.604Z,100.00
2019-05-05T20:41:54.364Z,100.00
2019-05-05T20:47:04.480Z,100.00
2019-05-05T20:52:10.041Z,100.00
2019-05-05T20:57:15.811Z,100.00
2019-05-05T21:02:21.784Z,100.00
2019-05-05T21:07:27.652Z,100.00
2019-05-05T21:12:42.339Z,100.00
2019-05-05T21:17:40.920Z,100.00
2019-05-05T21:22:48.443Z,100.00
2019-05-05T21:27:54.212Z,100.00
2019-05-05T21:32:59.989Z,100.00
2019-05-05T21:38:05.750Z,100.00
2019-05-05T21:43:11.521Z,100.00
2019-05-05T21:48:17.205Z,100.00
2019-05-05T21:53:24.746Z,97.73
2019-05-05T21:58:44.235Z,93.80
2019-05-05T22:03:49.972Z,92.15
2019-05-05T22:08:55.886Z,93.16
2019-05-05T22:14:04.373Z,96.53
2019-05-05T22:19:10.333Z,96.08
2019-05-05T22:24:17.427Z,98.86
2019-05-05T22:29:24.946Z,99.65
2019-05-05T22:34:31.020Z,100.00
2019-05-05T22:39:37.875Z,100.00
2019-05-05T22:44:43.583Z,100.00
2019-05-05T22:49:49.348Z,100.00
2019-05-05T22:54:55.148Z,100.00
2019-05-05T23:00:00.994Z,100.00
2019-05-05T23:05:24.025Z,100.00
2019-05-05T23:10:29.825Z,100.00
2019-05-05T23:15:37.337Z,100.00
2019-05-05T23:20:50.372Z,100.00
2019-05-05T23:25:57.891Z,100.00
2019-05-05T23:31:03.755Z,100.00
2019-05-05T23:36:09.461Z,100.00
2019-05-05T23:41:16.219Z,100.00
2019-05-05T23:46:23.986Z,100.00
2019-05-05T23:51:29.261Z,100.00
2019-05-05T23:56:35.164Z,100.00
